createdAt,value
2019-04-28T00:00:55.768Z,3.70
2019-04-28T00:03:23.189Z,3.83
2019-04-28T00:05:51.401Z,4.40
2019-04-28T00:08:18.084Z,3.63
2019-04-28T00:10:45.529Z,3.80
2019-04-28T00:13:12.967Z,4.57
2019-04-28T00:15:41.672Z,3.40
2019-04-28T00:18:07.841Z,3.03
2019-04-28T00:20:44.298Z,3.07
2019-04-28T00:23:27.164Z,3.20
2019-04-28T00:25:57.291Z,3.60
2019-04-28T00:28:24.694Z,4.93
2019-04-28T00:30:52.300Z,4.00
2019-04-28T00:33:19.680Z,4.20
2019-04-28T00:35:47.148Z,3.83
2019-04-28T00:38:14.566Z,4.73
2019-04-28T00:40:41.971Z,3.53
2019-04-28T00:43:10.835Z,3.53
2019-04-28T00:45:36.889Z,4.50
2019-04-28T00:48:04.323Z,4.03
2019-04-28T00:50:31.912Z,3.30
2019-04-28T00:52:59.322Z,3.73
2019-04-28T00:55:26.753Z,4.10
2019-04-28T00:57:54.175Z,4.23
2019-04-28T01:00:23.175Z,3.97
2019-04-28T01:02:50.873Z,3.70
2019-04-28T01:05:16.536Z,3.60
2019-04-28T01:07:43.955Z,3.57
2019-04-28T01:10:11.500Z,4.17
2019-04-28T01:12:38.849Z,4.23
2019-04-28T01:15:07.087Z,3.80
2019-04-28T01:17:34.539Z,3.93
2019-04-28T01:20:01.978Z,4.03
2019-04-28T01:22:30.073Z,3.60
2019-04-28T01:24:56.847Z,4.10
2019-04-28T01:27:30.462Z,4.30
2019-04-28T01:30:07.604Z,3.37
2019-04-28T01:32:27.739Z,3.33
2019-04-28T01:34:55.179Z,4.67
2019-04-28T01:37:22.590Z,4.10
2019-04-28T01:39:50.024Z,4.13
2019-04-28T01:42:17.430Z,3.73
2019-04-28T01:44:44.884Z,3.60
2019-04-28T01:47:12.323Z,3.70
2019-04-28T01:49:40.585Z,4.00
2019-04-28T01:52:07.170Z,3.93
2019-04-28T01:54:34.619Z,3.80
2019-04-28T01:57:02.035Z,4.00
2019-04-28T01:59:30.268Z,3.63
2019-04-28T02:01:56.933Z,3.77
2019-04-28T02:04:24.342Z,4.23
2019-04-28T02:06:51.800Z,3.57
2019-04-28T02:09:19.543Z,4.70
2019-04-28T02:11:46.662Z,3.87
2019-04-28T02:14:14.113Z,4.47
2019-04-28T02:16:41.504Z,4.00
2019-04-28T02:19:10.651Z,4.17
2019-04-28T02:21:36.420Z,3.83
2019-04-28T02:24:22.188Z,3.03
2019-04-28T02:26:52.367Z,3.20
2019-04-28T02:29:17.088Z,3.37
2019-04-28T02:31:44.665Z,3.47
2019-04-28T02:34:12.113Z,3.73
2019-04-28T02:36:40.754Z,3.27
2019-04-28T02:39:06.954Z,3.50
2019-04-28T02:41:34.356Z,4.23
2019-04-28T02:44:02.068Z,4.40
2019-04-28T02:46:30.852Z,3.90
2019-04-28T02:48:56.930Z,3.83
2019-04-28T02:51:24.369Z,4.03
2019-04-28T02:53:51.837Z,3.87
2019-04-28T02:56:21.310Z,3.60
2019-04-28T02:58:46.649Z,3.63
2019-04-28T03:01:22.734Z,4.00
2019-04-28T03:03:41.573Z,4.30
2019-04-28T03:06:10.853Z,3.43
2019-04-28T03:08:36.452Z,4.07
2019-04-28T03:11:03.864Z,3.97
2019-04-28T03:13:31.465Z,3.50
2019-04-28T03:16:01.138Z,4.67
2019-04-28T03:18:26.175Z,3.60
2019-04-28T03:20:53.583Z,4.40
2019-04-28T03:23:21.035Z,4.73
2019-04-28T03:25:51.094Z,4.07
2019-04-28T03:28:21.476Z,3.93
2019-04-28T03:31:06.561Z,3.90
2019-04-28T03:33:28.026Z,4.00
2019-04-28T03:35:55.463Z,5.00
2019-04-28T03:38:22.899Z,5.60
2019-04-28T03:40:51.208Z,4.13
2019-04-28T03:43:20.976Z,4.27
2019-04-28T03:45:50.177Z,4.60
2019-04-28T03:48:15.379Z,4.67
2019-04-28T03:50:42.799Z,4.77
2019-04-28T03:53:11.109Z,4.50
2019-04-28T03:55:37.673Z,4.33
2019-04-28T03:58:05.130Z,3.93
2019-04-28T04:00:32.538Z,3.97
2019-04-28T04:03:00.833Z,4.43
2019-04-28T04:05:27.399Z,3.90
2019-04-28T04:07:54.831Z,4.83
2019-04-28T04:10:24.968Z,4.67
2019-04-28T04:12:55.161Z,4.67
2019-04-28T04:15:22.612Z,3.93
2019-04-28T04:18:10.875Z,4.60
2019-04-28T04:20:35.821Z,4.00
2019-04-28T04:23:03.266Z,5.13
2019-04-28T04:25:31.427Z,4.27
2019-04-28T04:28:00.439Z,4.33
2019-04-28T04:30:25.548Z,4.30
2019-04-28T04:32:52.960Z,5.03
2019-04-28T04:35:21.439Z,4.60
2019-04-28T04:37:50.285Z,4.27
2019-04-28T04:40:15.234Z,3.83
2019-04-28T04:42:42.720Z,4.00
2019-04-28T04:45:10.627Z,4.30
2019-04-28T04:47:40.463Z,3.60
2019-04-28T04:50:05.039Z,3.77
2019-04-28T04:52:32.439Z,3.80
2019-04-28T04:55:01.229Z,3.60
2019-04-28T04:57:27.333Z,4.10
2019-04-28T04:59:55.526Z,3.27
2019-04-28T05:02:29.905Z,3.57
2019-04-28T05:04:53.310Z,3.67
2019-04-28T05:07:20.762Z,3.73
2019-04-28T05:09:49.568Z,3.57
2019-04-28T05:12:15.595Z,3.80
2019-04-28T05:14:43.052Z,3.47
2019-04-28T05:17:10.515Z,4.40
2019-04-28T05:19:37.912Z,4.23
2019-04-28T05:22:05.327Z,3.40
2019-04-28T05:24:35.667Z,3.33
2019-04-28T05:27:03.083Z,2.90
2019-04-28T05:29:30.761Z,3.13
2019-04-28T05:31:59.771Z,2.87
2019-04-28T05:34:25.407Z,2.97
2019-04-28T05:36:52.805Z,4.07
2019-04-28T05:39:20.256Z,3.53
2019-04-28T05:41:47.696Z,3.03
2019-04-28T05:44:15.107Z,2.50
2019-04-28T05:46:42.559Z,2.80
2019-04-28T05:49:10.325Z,2.70
2019-04-28T05:51:40.295Z,3.73
2019-04-28T05:54:22.197Z,3.60
2019-04-28T05:56:59.686Z,3.30
2019-04-28T05:59:31.758Z,3.30
2019-04-28T06:02:00.628Z,3.00
2019-04-28T06:04:26.990Z,3.60
2019-04-28T06:06:54.432Z,2.80
2019-04-28T06:09:24.530Z,3.40
2019-04-28T06:11:54.403Z,2.90
2019-04-28T06:14:19.895Z,2.50
2019-04-28T06:16:46.837Z,2.77
2019-04-28T06:19:14.242Z,2.93
2019-04-28T06:21:41.674Z,3.10
2019-04-28T06:24:09.127Z,3.70
2019-04-28T06:26:36.527Z,3.40
2019-04-28T06:29:03.955Z,3.57
2019-04-28T06:31:31.446Z,3.83
2019-04-28T06:33:58.885Z,3.90
2019-04-28T06:36:26.322Z,4.00
2019-04-28T06:38:53.755Z,3.50
2019-04-28T06:41:21.169Z,3.50
2019-04-28T06:43:48.722Z,3.80
2019-04-28T06:46:16.168Z,3.23
2019-04-28T06:48:43.632Z,3.97
2019-04-28T06:51:11.030Z,3.13
2019-04-28T06:53:38.479Z,3.83
2019-04-28T06:56:05.928Z,3.33
2019-04-28T06:58:33.342Z,3.67
2019-04-28T07:01:00.793Z,3.67
2019-04-28T07:03:28.202Z,3.30
2019-04-28T07:05:55.640Z,3.67
2019-04-28T07:08:23.044Z,4.20
2019-04-28T07:10:50.539Z,4.43
2019-04-28T07:13:20.573Z,4.00
2019-04-28T07:15:45.342Z,3.87
2019-04-28T07:18:12.778Z,4.30
2019-04-28T07:20:40.222Z,4.50
2019-04-28T07:23:07.695Z,4.60
2019-04-28T07:25:35.102Z,4.40
2019-04-28T07:28:02.552Z,4.50
2019-04-28T07:30:29.953Z,4.50
2019-04-28T07:32:58.183Z,4.43
2019-04-28T07:35:25.655Z,4.80
2019-04-28T07:37:53.073Z,5.03
2019-04-28T07:40:20.517Z,4.37
2019-04-28T07:42:47.967Z,5.17
2019-04-28T07:45:15.423Z,5.13
2019-04-28T07:47:42.864Z,4.60
2019-04-28T07:50:10.299Z,4.50
2019-04-28T07:52:43.332Z,5.03
2019-04-28T07:55:10.746Z,5.07
2019-04-28T07:57:38.186Z,5.23
2019-04-28T08:00:05.656Z,4.50
2019-04-28T08:02:33.053Z,4.27
2019-04-28T08:05:00.541Z,4.47
2019-04-28T08:07:27.923Z,4.07
2019-04-28T08:09:55.369Z,3.43
2019-04-28T08:12:22.781Z,3.87
2019-04-28T08:14:50.238Z,3.83
2019-04-28T08:17:17.651Z,4.20
2019-04-28T08:19:45.061Z,3.50
2019-04-28T08:22:12.500Z,3.33
2019-04-28T08:24:39.906Z,3.67
2019-04-28T08:27:07.356Z,3.30
2019-04-28T08:29:34.810Z,3.83
2019-04-28T08:32:02.243Z,3.13
2019-04-28T08:34:29.683Z,3.40
2019-04-28T08:36:57.086Z,3.07
2019-04-28T08:39:26.736Z,2.90
2019-04-28T08:41:51.929Z,2.70
2019-04-28T08:44:19.371Z,3.27
2019-04-28T08:46:46.775Z,3.30
2019-04-28T08:49:14.269Z,2.80
2019-04-28T08:51:41.685Z,3.37
2019-04-28T08:54:09.126Z,3.13
2019-04-28T08:56:36.551Z,3.10
2019-04-28T08:59:05.025Z,2.90
2019-04-28T09:01:31.410Z,2.70
2019-04-28T09:03:58.898Z,3.37
2019-04-28T09:06:26.292Z,3.17
2019-04-28T09:08:53.700Z,3.30
2019-04-28T09:11:21.173Z,3.50
2019-04-28T09:13:48.634Z,3.50
2019-04-28T09:16:16.035Z,4.07
2019-04-28T09:18:43.471Z,3.17
2019-04-28T09:21:10.883Z,3.30
2019-04-28T09:23:38.296Z,3.40
2019-04-28T09:26:05.737Z,3.60
2019-04-28T09:28:33.171Z,2.93
2019-04-28T09:31:00.585Z,3.20
2019-04-28T09:33:28.052Z,2.83
2019-04-28T09:35:55.459Z,3.00
2019-04-28T09:38:22.862Z,2.83
2019-04-28T09:40:50.306Z,3.27
2019-04-28T09:43:26.515Z,3.10
2019-04-28T09:45:53.951Z,3.30
2019-04-28T09:48:21.398Z,3.33
2019-04-28T09:50:48.833Z,3.77
2019-04-28T09:53:16.289Z,3.10
2019-04-28T09:55:43.693Z,2.20
2019-04-28T09:58:11.147Z,2.33
2019-04-28T10:00:38.554Z,2.30
2019-04-28T10:03:05.992Z,2.80
2019-04-28T10:05:33.425Z,3.43
2019-04-28T10:08:00.841Z,2.70
2019-04-28T10:10:28.286Z,2.57
2019-04-28T10:12:55.698Z,2.30
2019-04-28T10:15:23.134Z,2.37
2019-04-28T10:17:50.538Z,2.30
2019-04-28T10:20:18.004Z,2.23
2019-04-28T10:22:45.453Z,2.90
2019-04-28T10:25:12.885Z,2.30
2019-04-28T10:27:40.287Z,2.40
2019-04-28T10:30:07.741Z,2.43
2019-04-28T10:32:35.247Z,2.90
2019-04-28T10:35:02.687Z,3.00
2019-04-28T10:37:30.084Z,3.50
2019-04-28T10:39:57.525Z,3.33
2019-04-28T10:42:25.856Z,3.20
2019-04-28T10:44:53.289Z,3.47
2019-04-28T10:47:20.710Z,3.33
2019-04-28T10:49:48.164Z,3.03
2019-04-28T10:52:15.610Z,3.03
2019-04-28T10:54:43.011Z,3.00
2019-04-28T10:57:10.449Z,2.63
2019-04-28T10:59:37.865Z,2.40
2019-04-28T11:02:05.307Z,2.90
2019-04-28T11:04:41.542Z,2.40
2019-04-28T11:07:11.962Z,2.40
2019-04-28T11:09:39.371Z,2.57
2019-04-28T11:12:06.887Z,2.87
2019-04-28T11:14:34.286Z,2.53
2019-04-28T11:17:01.766Z,2.80
2019-04-28T11:19:29.166Z,2.73
2019-04-28T11:21:56.608Z,2.40
2019-04-28T11:24:24.008Z,2.57
2019-04-28T11:26:51.459Z,2.23
2019-04-28T11:29:18.852Z,2.23
2019-04-28T11:31:46.284Z,2.20
2019-04-28T11:34:16.583Z,2.23
2019-04-28T11:36:44.245Z,2.33
2019-04-28T11:39:11.733Z,2.40
2019-04-28T11:41:39.142Z,2.10
2019-04-28T11:44:06.544Z,2.00
2019-04-28T11:46:34.020Z,2.20
2019-04-28T11:49:01.430Z,2.30
2019-04-28T11:51:28.917Z,2.47
2019-04-28T11:53:56.312Z,2.33
2019-04-28T11:56:23.816Z,3.07
2019-04-28T11:58:51.201Z,2.40
2019-04-28T12:01:18.602Z,2.20
2019-04-28T12:03:46.062Z,2.47
2019-04-28T12:06:13.457Z,2.40
2019-04-28T12:08:40.861Z,2.03
2019-04-28T12:11:14.026Z,2.37
2019-04-28T12:13:41.433Z,2.20
2019-04-28T12:16:11.432Z,2.50
2019-04-28T12:18:45.017Z,1.80
2019-04-28T12:21:12.456Z,1.80
2019-04-28T12:23:39.888Z,1.80
2019-04-28T12:26:07.308Z,2.30
2019-04-28T12:28:34.713Z,2.67
2019-04-28T12:31:02.190Z,2.40
2019-04-28T12:33:29.597Z,2.70
2019-04-28T12:35:57.041Z,2.50
2019-04-28T12:38:24.444Z,2.50
2019-04-28T12:40:51.892Z,2.27
2019-04-28T12:43:19.305Z,2.57
2019-04-28T12:45:46.749Z,2.80
2019-04-28T12:48:14.194Z,2.90
2019-04-28T12:50:47.841Z,2.87
2019-04-28T12:53:15.251Z,3.40
2019-04-28T12:55:42.686Z,3.30
2019-04-28T12:58:10.098Z,3.40
2019-04-28T13:00:56.073Z,3.50
2019-04-28T13:03:29.346Z,3.47
2019-04-28T13:06:02.631Z,3.60
2019-04-28T13:08:24.212Z,3.43
2019-04-28T13:10:51.624Z,3.60
2019-04-28T13:13:19.071Z,4.10
2019-04-28T13:15:46.483Z,3.83
2019-04-28T13:18:13.890Z,4.00
2019-04-28T13:20:41.349Z,4.37
2019-04-28T13:23:08.813Z,3.90
2019-04-28T13:25:36.382Z,3.73
2019-04-28T13:28:03.768Z,3.50
2019-04-28T13:30:31.224Z,3.40
2019-04-28T13:32:58.648Z,3.20
2019-04-28T13:35:26.047Z,3.60
2019-04-28T13:37:53.534Z,3.10
2019-04-28T13:40:20.976Z,3.47
2019-04-28T13:42:48.398Z,3.63
2019-04-28T13:45:15.857Z,3.63
2019-04-28T13:47:43.275Z,4.30
2019-04-28T13:50:16.390Z,3.27
2019-04-28T13:52:43.872Z,3.60
2019-04-28T13:55:17.109Z,3.43
2019-04-28T13:57:44.545Z,3.40
2019-04-28T14:00:11.983Z,3.67
2019-04-28T14:02:54.608Z,3.50
2019-04-28T14:05:24.557Z,3.13
2019-04-28T14:07:51.976Z,3.20
2019-04-28T14:10:19.431Z,3.40
2019-04-28T14:12:46.859Z,3.10
2019-04-28T14:15:14.334Z,3.30
2019-04-28T14:17:41.752Z,2.73
2019-04-28T14:20:09.143Z,3.10
2019-04-28T14:22:36.585Z,3.27
2019-04-28T14:25:04.019Z,3.20
2019-04-28T14:27:31.479Z,3.23
2019-04-28T14:29:58.890Z,3.37
2019-04-28T14:32:26.401Z,3.70
2019-04-28T14:34:53.747Z,3.67
2019-04-28T14:37:21.205Z,3.57
2019-04-28T14:39:48.643Z,3.50
2019-04-28T14:42:16.064Z,3.57
2019-04-28T14:44:43.544Z,3.43
2019-04-28T14:47:10.919Z,3.20
2019-04-28T14:49:38.408Z,3.60
2019-04-28T14:52:05.793Z,3.43
2019-04-28T14:54:33.402Z,3.50
2019-04-28T14:57:00.825Z,3.27
2019-04-28T14:59:28.233Z,3.30
2019-04-28T15:02:14.095Z,3.30
2019-04-28T15:04:47.550Z,3.13
2019-04-28T15:07:32.898Z,3.17
2019-04-28T15:10:00.300Z,3.53
2019-04-28T15:12:27.714Z,3.40
2019-04-28T15:14:55.209Z,3.30
2019-04-28T15:17:22.568Z,3.63
2019-04-28T15:19:50.005Z,4.07
2019-04-28T15:22:17.463Z,3.30
2019-04-28T15:24:44.907Z,3.60
2019-04-28T15:27:12.280Z,3.27
2019-04-28T15:29:39.719Z,3.10
2019-04-28T15:32:07.137Z,3.30
2019-04-28T15:34:34.578Z,3.30
2019-04-28T15:37:09.547Z,3.43
2019-04-28T15:39:29.468Z,3.37
2019-04-28T15:41:56.873Z,3.53
2019-04-28T15:44:24.328Z,4.03
2019-04-28T15:46:51.785Z,4.73
2019-04-28T15:49:19.202Z,3.60
2019-04-28T15:51:46.610Z,3.90
2019-04-28T15:54:14.077Z,4.57
2019-04-28T15:56:41.512Z,4.63
2019-04-28T15:59:08.949Z,5.17
2019-04-28T16:01:36.361Z,5.77
2019-04-28T16:04:03.804Z,4.33
2019-04-28T16:06:31.225Z,5.60
2019-04-28T16:08:58.661Z,4.83
2019-04-28T16:11:28.847Z,6.00
2019-04-28T16:13:53.554Z,4.60
2019-04-28T16:16:21.006Z,6.70
2019-04-28T16:18:48.411Z,6.80
2019-04-28T16:21:15.859Z,6.37
2019-04-28T16:23:43.264Z,6.70
2019-04-28T16:26:10.687Z,6.80
2019-04-28T16:28:38.145Z,7.10
2019-04-28T16:31:05.590Z,6.50
2019-04-28T16:33:33.894Z,6.57
2019-04-28T16:36:01.317Z,6.70
2019-04-28T16:38:28.796Z,6.90
2019-04-28T16:40:56.206Z,6.70
2019-04-28T16:43:24.453Z,7.17
2019-04-28T16:45:51.923Z,9.07
2019-04-28T16:48:19.333Z,9.60
2019-04-28T16:50:47.176Z,10.87
2019-04-28T16:53:14.199Z,11.57
2019-04-28T16:55:44.293Z,10.20
2019-04-28T16:58:14.632Z,10.97
2019-04-28T17:00:45.148Z,10.77
2019-04-28T17:03:12.558Z,11.63
2019-04-28T17:05:40.014Z,11.13
2019-04-28T17:08:07.477Z,12.57
2019-04-28T17:10:34.934Z,11.03
2019-04-28T17:13:02.359Z,11.90
2019-04-28T17:15:30.408Z,11.93
2019-04-28T17:17:57.238Z,11.80
2019-04-28T17:20:24.701Z,10.80
2019-04-28T17:22:52.129Z,11.40
2019-04-28T17:25:19.611Z,11.30
2019-04-28T17:27:47.406Z,11.33
2019-04-28T17:30:14.829Z,10.97
2019-04-28T17:32:42.294Z,11.67
2019-04-28T17:35:09.746Z,11.23
2019-04-28T17:37:37.317Z,10.97
2019-04-28T17:40:07.728Z,10.83
2019-04-28T17:42:35.144Z,10.97
2019-04-28T17:45:02.624Z,11.20
2019-04-28T17:47:30.040Z,11.10
2019-04-28T17:49:57.487Z,11.17
2019-04-28T17:52:24.908Z,10.60
2019-04-28T17:54:52.315Z,11.23
2019-04-28T17:57:19.811Z,11.60
2019-04-28T17:59:47.230Z,12.57
2019-04-28T18:02:26.616Z,13.43
2019-04-28T18:04:54.030Z,13.33
2019-04-28T18:07:21.491Z,13.47
2019-04-28T18:09:48.908Z,13.57
2019-04-28T18:12:16.366Z,14.40
2019-04-28T18:14:43.817Z,13.27
2019-04-28T18:17:32.716Z,17.30
2019-04-28T18:20:00.140Z,14.00
2019-04-28T18:22:27.591Z,14.50
2019-04-28T18:24:55.295Z,14.60
2019-04-28T18:27:22.745Z,13.67
2019-04-28T18:29:50.183Z,13.77
2019-04-28T18:32:17.687Z,15.40
2019-04-28T18:35:03.023Z,14.60
2019-04-28T18:37:48.522Z,15.70
2019-04-28T18:40:18.620Z,16.17
2019-04-28T18:42:46.078Z,15.93
2019-04-28T18:45:13.520Z,16.10
2019-04-28T18:47:40.991Z,14.93
2019-04-28T18:50:08.430Z,15.70
2019-04-28T18:52:35.884Z,15.60
2019-04-28T18:55:03.350Z,16.53
2019-04-28T18:57:30.830Z,15.80
2019-04-28T18:59:58.239Z,15.50
2019-04-28T19:02:25.715Z,14.03
2019-04-28T19:04:53.149Z,13.33
2019-04-28T19:07:32.544Z,13.27
2019-04-28T19:09:59.950Z,14.00
2019-04-28T19:12:27.511Z,15.20
2019-04-28T19:15:03.921Z,13.30
2019-04-28T19:17:34.229Z,14.43
2019-04-28T19:20:01.683Z,15.40
2019-04-28T19:22:29.119Z,13.83
2019-04-28T19:24:56.594Z,13.50
2019-04-28T19:27:24.062Z,13.27
2019-04-28T19:29:51.496Z,14.67
2019-04-28T19:32:18.965Z,16.53
2019-04-28T19:34:46.391Z,15.03
2019-04-28T19:37:13.817Z,14.93
2019-04-28T19:39:41.282Z,16.27
2019-04-28T19:42:08.738Z,15.00
2019-04-28T19:44:36.573Z,15.07
2019-04-28T19:47:04.034Z,14.43
2019-04-28T19:49:31.505Z,14.50
2019-04-28T19:51:58.932Z,15.07
2019-04-28T19:54:28.995Z,14.40
2019-04-28T19:56:59.000Z,15.80
2019-04-28T19:59:28.947Z,15.03
2019-04-28T20:01:56.382Z,16.97
2019-04-28T20:04:23.835Z,17.60
2019-04-28T20:06:51.257Z,17.73
2019-04-28T20:09:18.724Z,19.87
2019-04-28T20:11:46.143Z,16.40
2019-04-28T20:14:13.596Z,17.23
2019-04-28T20:16:41.005Z,14.70
2019-04-28T20:19:08.480Z,16.50
2019-04-28T20:21:35.907Z,15.60
2019-04-28T20:24:03.394Z,16.77
2019-04-28T20:26:30.876Z,18.10
2019-04-28T20:28:58.287Z,18.23
2019-04-28T20:31:25.751Z,18.27
2019-04-28T20:33:53.172Z,17.60
2019-04-28T20:36:23.418Z,15.87
2019-04-28T20:38:50.876Z,16.43
2019-04-28T20:41:18.335Z,17.17
2019-04-28T20:43:45.830Z,16.70
2019-04-28T20:46:15.953Z,17.80
2019-04-28T20:48:43.343Z,18.97
2019-04-28T20:51:10.849Z,20.60
2019-04-28T20:53:38.262Z,18.97
2019-04-28T20:56:05.712Z,20.80
2019-04-28T20:58:33.141Z,18.30
2019-04-28T21:01:00.615Z,19.60
2019-04-28T21:03:28.058Z,19.10
2019-04-28T21:05:55.518Z,21.50
2019-04-28T21:08:22.922Z,20.60
2019-04-28T21:10:50.387Z,18.47
2019-04-28T21:13:17.791Z,18.43
2019-04-28T21:15:45.346Z,17.07
2019-04-28T21:18:12.648Z,17.53
2019-04-28T21:20:40.104Z,19.43
2019-04-28T21:23:07.511Z,19.10
2019-04-28T21:25:34.965Z,21.40
2019-04-28T21:28:02.363Z,18.67
2019-04-28T21:30:29.822Z,20.03
2019-04-28T21:32:57.266Z,20.53
2019-04-28T21:35:25.050Z,20.77
2019-04-28T21:37:52.484Z,23.63
2019-04-28T21:40:19.973Z,20.77
2019-04-28T21:43:02.413Z,21.73
2019-04-28T21:45:50.318Z,19.20
2019-04-28T21:48:33.556Z,18.70
2019-04-28T21:51:01.044Z,18.57
2019-04-28T21:53:28.491Z,20.90
2019-04-28T21:55:55.939Z,21.70
2019-04-28T21:58:33.005Z,21.40
2019-04-28T22:00:53.696Z,21.23
2019-04-28T22:03:21.123Z,21.57
2019-04-28T22:05:48.561Z,21.63
2019-04-28T22:08:16.001Z,21.40
2019-04-28T22:10:43.433Z,20.90
2019-04-28T22:13:10.840Z,21.73
2019-04-28T22:15:38.286Z,23.70
2019-04-28T22:18:05.691Z,22.73
2019-04-28T22:20:33.143Z,20.13
2019-04-28T22:23:00.555Z,21.60
2019-04-28T22:25:28.001Z,20.97
2019-04-28T22:27:55.415Z,21.43
2019-04-28T22:30:22.875Z,19.97
2019-04-28T22:32:50.303Z,19.27
2019-04-28T22:35:17.738Z,16.60
2019-04-28T22:37:45.147Z,19.07
2019-04-28T22:40:12.592Z,19.37
2019-04-28T22:42:40.004Z,20.33
2019-04-28T22:45:07.435Z,20.07
2019-04-28T22:47:34.844Z,21.40
2019-04-28T22:50:02.284Z,22.87
2019-04-28T22:52:30.584Z,20.17
2019-04-28T22:54:58.035Z,21.30
2019-04-28T22:57:43.850Z,21.47
2019-04-28T23:00:23.475Z,20.57
2019-04-28T23:02:50.915Z,21.73
2019-04-28T23:05:18.324Z,20.83
2019-04-28T23:07:45.773Z,20.87
2019-04-28T23:10:13.221Z,21.97
2019-04-28T23:12:40.667Z,21.30
2019-04-28T23:15:09.558Z,19.17
2019-04-28T23:17:37.004Z,17.37
2019-04-28T23:20:07.110Z,16.90
2019-04-28T23:22:46.299Z,20.57
2019-04-28T23:25:02.010Z,21.70
2019-04-28T23:27:29.472Z,21.33
2019-04-28T23:29:56.876Z,18.97
2019-04-28T23:32:24.315Z,19.50
2019-04-28T23:34:51.809Z,19.43
2019-04-28T23:37:19.213Z,20.27
2019-04-28T23:39:46.643Z,19.67
2019-04-28T23:42:16.872Z,17.43
2019-04-28T23:44:44.275Z,19.67
2019-04-28T23:47:11.687Z,22.17
2019-04-28T23:49:39.159Z,19.70
2019-04-28T23:52:12.533Z,19.73
2019-04-28T23:54:46.177Z,18.90
2019-04-28T23:57:13.602Z,18.63
2019-04-28T23:59:41.053Z,18.60
